createdAt,value
2019-05-26T00:00:09.623Z,5.30
2019-05-26T03:02:25.155Z,7.35
2019-05-26T03:04:54.430Z,7.65
2019-05-26T03:07:25.748Z,6.60
2019-05-26T03:09:56.624Z,7.80
2019-05-26T03:12:28.703Z,8.23
2019-05-26T03:15:00.583Z,7.83
2019-05-26T03:17:33.628Z,6.80
2019-05-26T03:20:04.407Z,7.95
2019-05-26T03:22:36.134Z,7.58
2019-05-26T03:25:05.936Z,7.40
2019-05-26T03:27:35.204Z,7.35
2019-05-26T03:30:07.273Z,7.25
2019-05-26T03:32:36.683Z,6.95
2019-05-26T03:35:09.911Z,7.10
2019-05-26T03:37:39.290Z,7.00
2019-05-26T03:40:10.423Z,6.87
2019-05-26T03:42:39.701Z,7.40
2019-05-26T03:45:09.830Z,7.22
2019-05-26T03:47:39.151Z,7.03
2019-05-26T03:50:08.865Z,7.05
2019-05-26T03:52:38.549Z,7.47
2019-05-26T03:55:07.875Z,7.08
2019-05-26T03:57:37.668Z,7.28
2019-05-26T04:00:10.087Z,7.15
2019-05-26T04:02:39.648Z,9.23
2019-05-26T04:05:09.086Z,13.43
2019-05-26T04:07:38.467Z,9.10
2019-05-26T04:10:08.369Z,7.03
2019-05-26T04:12:37.651Z,8.38
2019-05-26T04:15:08.376Z,10.50
2019-05-26T04:17:37.671Z,10.35
2019-05-26T04:20:09.100Z,9.10
2019-05-26T04:22:38.362Z,9.35
2019-05-26T04:25:08.079Z,8.65
2019-05-26T04:27:37.348Z,7.58
2019-05-26T04:30:07.903Z,9.08
2019-05-26T04:32:37.173Z,9.68
2019-05-26T04:35:07.115Z,8.55
2019-05-26T04:37:36.384Z,9.60
2019-05-26T04:40:25.984Z,8.35
2019-05-26T04:42:39.774Z,8.63
2019-05-26T04:45:09.397Z,9.60
2019-05-26T04:47:38.666Z,8.75
2019-05-26T04:50:08.576Z,8.78
2019-05-26T04:52:37.857Z,9.10
2019-05-26T04:55:10.715Z,10.20
2019-05-26T04:57:39.995Z,9.30
2019-05-26T05:00:10.796Z,9.68
2019-05-26T05:02:40.089Z,9.45
2019-05-26T05:05:09.796Z,8.95
2019-05-26T05:07:39.083Z,9.70
2019-05-26T05:10:08.490Z,10.13
2019-05-26T05:12:37.771Z,10.08
2019-05-26T05:15:07.892Z,10.15
2019-05-26T05:17:37.439Z,10.13
2019-05-26T05:20:08.416Z,10.78
2019-05-26T05:22:37.698Z,9.75
2019-05-26T05:25:14.669Z,9.55
2019-05-26T05:27:41.964Z,10.30
2019-05-26T05:30:12.730Z,10.15
2019-05-26T05:32:41.999Z,9.40
2019-05-26T05:35:12.170Z,9.45
2019-05-26T05:37:41.438Z,10.25
2019-05-26T05:40:13.248Z,10.65
2019-05-26T05:42:42.843Z,10.23
2019-05-26T05:45:12.858Z,8.80
2019-05-26T05:47:42.130Z,10.13
2019-05-26T05:50:11.648Z,9.70
2019-05-26T05:52:40.914Z,8.73
2019-05-26T05:55:10.614Z,9.40
2019-05-26T05:57:40.188Z,9.70
2019-05-26T06:00:10.639Z,9.75
2019-05-26T06:02:40.227Z,10.32
2019-05-26T06:05:10.162Z,8.70
2019-05-26T06:07:39.756Z,10.30
2019-05-26T06:10:09.667Z,8.78
2019-05-26T06:12:39.110Z,8.78
2019-05-26T06:15:12.965Z,9.50
2019-05-26T06:17:42.952Z,9.43
2019-05-26T06:20:13.938Z,9.05
2019-05-26T06:22:43.202Z,8.08
2019-05-26T06:25:13.071Z,8.58
2019-05-26T06:27:42.335Z,8.68
2019-05-26T06:30:12.772Z,7.67
2019-05-26T06:32:42.042Z,6.85
2019-05-26T06:35:11.378Z,7.37
2019-05-26T06:37:40.651Z,7.78
2019-05-26T06:40:11.254Z,7.25
2019-05-26T06:42:40.521Z,7.30
2019-05-26T06:45:12.675Z,6.92
2019-05-26T06:47:41.932Z,7.28
2019-05-26T06:50:11.807Z,7.53
2019-05-26T06:52:41.110Z,7.20
2019-05-26T06:55:12.292Z,8.10
2019-05-26T06:57:41.938Z,7.28
2019-05-26T07:00:11.489Z,8.35
2019-05-26T07:02:40.777Z,8.08
2019-05-26T07:05:10.502Z,7.47
2019-05-26T07:07:39.831Z,8.10
2019-05-26T07:10:09.665Z,8.35
2019-05-26T07:12:38.946Z,6.42
2019-05-26T07:15:10.263Z,8.05
2019-05-26T07:17:39.563Z,8.10
2019-05-26T07:20:09.529Z,7.67
2019-05-26T07:22:38.854Z,7.45
2019-05-26T07:25:09.462Z,7.05
2019-05-26T07:27:38.750Z,7.97
2019-05-26T07:30:09.758Z,7.90
2019-05-26T07:32:39.207Z,8.20
2019-05-26T07:35:08.946Z,9.53
2019-05-26T07:37:38.400Z,8.88
2019-05-26T07:40:07.759Z,10.08
2019-05-26T07:42:37.031Z,10.30
2019-05-26T07:45:07.677Z,11.30
2019-05-26T07:47:36.943Z,12.63
2019-05-26T07:50:07.183Z,12.23
2019-05-26T07:52:36.483Z,12.28
2019-05-26T07:55:06.634Z,11.48
2019-05-26T07:57:36.165Z,10.88
2019-05-26T08:00:07.395Z,11.43
2019-05-26T08:02:36.684Z,11.75
2019-05-26T08:05:07.334Z,12.58
2019-05-26T08:07:36.961Z,11.53
2019-05-26T08:10:07.170Z,12.40
2019-05-26T08:12:36.466Z,11.25
2019-05-26T08:15:07.480Z,12.28
2019-05-26T08:17:36.830Z,9.53
2019-05-26T08:20:08.116Z,10.63
2019-05-26T08:22:37.499Z,11.65
2019-05-26T08:25:08.110Z,10.45
2019-05-26T08:27:37.405Z,9.25
2019-05-26T08:30:10.246Z,10.25
2019-05-26T08:32:39.530Z,10.40
2019-05-26T08:35:10.098Z,8.88
2019-05-26T08:37:39.370Z,9.25
2019-05-26T08:40:17.991Z,9.83
2019-05-26T08:42:49.948Z,8.95
2019-05-26T08:45:22.003Z,10.32
2019-05-26T08:47:52.256Z,9.43
2019-05-26T08:50:22.554Z,9.48
2019-05-26T08:52:51.839Z,8.10
2019-05-26T08:55:21.786Z,8.70
2019-05-26T08:57:51.349Z,8.00
2019-05-26T09:00:22.746Z,7.85
2019-05-26T09:02:52.053Z,8.10
2019-05-26T09:05:22.365Z,7.37
2019-05-26T09:07:51.629Z,7.75
2019-05-26T09:10:21.079Z,7.20
2019-05-26T09:13:00.709Z,7.00
2019-05-26T09:15:22.440Z,7.60
2019-05-26T09:17:51.700Z,7.28
2019-05-26T09:20:23.007Z,6.70
2019-05-26T09:22:52.345Z,5.95
2019-05-26T09:25:21.865Z,6.53
2019-05-26T09:27:51.128Z,6.50
2019-05-26T09:30:21.244Z,7.53
2019-05-26T09:32:50.513Z,7.67
2019-05-26T09:35:19.785Z,6.83
2019-05-26T09:37:49.058Z,6.50
2019-05-26T09:40:18.543Z,6.95
2019-05-26T09:42:47.812Z,5.90
2019-05-26T09:45:17.606Z,5.72
2019-05-26T09:47:46.879Z,6.35
2019-05-26T09:50:16.314Z,6.15
2019-05-26T09:52:45.579Z,5.80
2019-05-26T09:55:15.326Z,5.83
2019-05-26T09:57:44.682Z,8.45
2019-05-26T10:00:16.288Z,5.75
2019-05-26T10:02:45.902Z,5.62
2019-05-26T10:05:15.810Z,6.15
2019-05-26T10:07:45.218Z,5.50
2019-05-26T10:10:15.238Z,5.40
2019-05-26T10:12:44.505Z,4.62
2019-05-26T10:15:14.681Z,5.47
2019-05-26T10:17:43.960Z,5.33
2019-05-26T10:20:13.755Z,5.97
2019-05-26T10:22:43.026Z,6.17
2019-05-26T10:25:12.530Z,5.97
2019-05-26T10:27:41.801Z,5.53
2019-05-26T10:30:15.399Z,5.30
2019-05-26T10:32:44.666Z,4.95
2019-05-26T10:35:14.405Z,5.35
2019-05-26T10:37:43.671Z,4.45
2019-05-26T10:40:13.570Z,3.95
2019-05-26T10:42:42.842Z,4.40
2019-05-26T10:45:13.447Z,4.80
2019-05-26T10:47:42.710Z,3.65
2019-05-26T10:50:12.107Z,3.17
2019-05-26T10:52:41.371Z,3.72
2019-05-26T10:55:10.967Z,3.30
2019-05-26T10:57:40.247Z,3.92
2019-05-26T11:00:10.142Z,3.30
2019-05-26T11:02:39.470Z,3.00
2019-05-26T11:05:09.074Z,3.15
2019-05-26T11:07:38.343Z,3.00
2019-05-26T11:10:07.938Z,2.90
2019-05-26T11:12:37.415Z,2.50
2019-05-26T11:15:11.846Z,2.60
2019-05-26T11:17:41.431Z,3.20
2019-05-26T11:20:12.374Z,2.60
2019-05-26T11:22:41.654Z,2.20
2019-05-26T11:25:12.053Z,2.00
2019-05-26T11:27:41.319Z,2.10
2019-05-26T11:30:12.219Z,2.45
2019-05-26T11:32:41.555Z,2.20
2019-05-26T11:35:11.172Z,2.20
2019-05-26T11:37:40.434Z,2.40
2019-05-26T11:40:10.346Z,1.90
2019-05-26T11:42:39.611Z,2.08
2019-05-26T11:45:09.745Z,1.95
2019-05-26T11:47:39.304Z,1.82
2019-05-26T11:50:09.015Z,2.02
2019-05-26T11:52:38.351Z,1.90
2019-05-26T11:55:08.275Z,1.92
2019-05-26T11:57:37.866Z,1.85
2019-05-26T12:00:08.731Z,1.87
2019-05-26T12:02:38.971Z,2.08
2019-05-26T12:05:09.786Z,1.85
2019-05-26T12:07:39.050Z,2.37
2019-05-26T12:10:13.650Z,2.20
2019-05-26T12:12:40.928Z,2.27
2019-05-26T12:15:11.137Z,2.35
2019-05-26T12:17:40.411Z,2.70
2019-05-26T12:20:09.926Z,2.40
2019-05-26T12:22:39.187Z,1.95
2019-05-26T12:25:09.191Z,2.47
2019-05-26T12:27:38.465Z,2.00
2019-05-26T12:30:10.069Z,1.90
2019-05-26T12:32:39.339Z,2.40
2019-05-26T12:35:09.441Z,2.60
2019-05-26T12:37:38.738Z,2.58
2019-05-26T12:40:10.499Z,3.20
2019-05-26T12:42:40.430Z,2.42
2019-05-26T12:45:10.545Z,2.45
2019-05-26T12:47:39.811Z,2.02
2019-05-26T12:50:19.943Z,2.90
2019-05-26T12:53:32.526Z,3.30
2019-05-26T12:56:43.109Z,2.50
2019-05-26T13:02:17.128Z,2.40
2019-05-26T13:04:46.395Z,2.22
2019-05-26T13:07:15.717Z,2.70
2019-05-26T13:09:45.343Z,2.60
2019-05-26T13:12:14.873Z,2.90
2019-05-26T13:14:44.111Z,2.22
2019-05-26T13:17:13.960Z,2.35
2019-05-26T13:19:43.291Z,2.17
2019-05-26T13:22:12.558Z,2.58
2019-05-26T13:24:42.902Z,2.42
2019-05-26T13:27:12.322Z,2.20
2019-05-26T13:29:41.590Z,2.12
2019-05-26T13:32:10.857Z,2.47
2019-05-26T13:34:40.125Z,2.98
2019-05-26T13:37:09.412Z,2.30
2019-05-26T13:39:38.679Z,2.50
2019-05-26T13:42:07.940Z,2.72
2019-05-26T13:44:38.179Z,2.40
2019-05-26T13:47:07.759Z,2.00
2019-05-26T13:49:37.075Z,2.00
2019-05-26T13:52:06.379Z,2.10
2019-05-26T13:54:35.647Z,2.02
2019-05-26T13:57:05.894Z,1.90
2019-05-26T13:59:35.467Z,1.90
2019-05-26T14:02:04.911Z,1.82
2019-05-26T14:04:34.176Z,2.25
2019-05-26T14:07:03.621Z,1.62
2019-05-26T14:09:32.946Z,1.80
2019-05-26T14:12:02.223Z,1.70
2019-05-26T14:14:31.489Z,1.90
2019-05-26T14:17:02.198Z,1.90
2019-05-26T14:19:33.297Z,1.80
2019-05-26T14:22:02.585Z,1.92
2019-05-26T14:24:31.842Z,1.62
2019-05-26T14:27:01.142Z,1.82
2019-05-26T14:29:30.451Z,1.80
2019-05-26T14:31:59.723Z,1.70
2019-05-26T14:34:28.983Z,1.40
2019-05-26T14:36:58.251Z,1.50
2019-05-26T14:39:27.535Z,1.80
2019-05-26T14:41:56.799Z,1.60
2019-05-26T14:44:26.063Z,1.20
2019-05-26T14:46:56.430Z,1.40
2019-05-26T14:49:26.144Z,1.62
2019-05-26T14:51:55.403Z,1.60
2019-05-26T14:54:24.668Z,1.47
2019-05-26T14:56:53.941Z,1.30
2019-05-26T14:59:23.200Z,1.40
2019-05-26T15:01:53.032Z,1.47
2019-05-26T15:04:22.535Z,1.20
2019-05-26T15:06:52.044Z,1.40
2019-05-26T15:09:25.218Z,1.40
2019-05-26T15:11:52.591Z,1.30
2019-05-26T15:14:21.850Z,1.25
2019-05-26T15:16:51.401Z,1.25
2019-05-26T15:19:20.663Z,1.30
2019-05-26T15:21:49.957Z,1.30
2019-05-26T15:24:19.191Z,1.10
2019-05-26T15:26:48.460Z,1.50
2019-05-26T15:29:17.735Z,1.30
2019-05-26T15:31:46.993Z,1.55
2019-05-26T15:34:16.276Z,1.40
2019-05-26T15:36:45.812Z,1.40
2019-05-26T15:39:15.084Z,1.42
2019-05-26T15:41:44.348Z,1.35
2019-05-26T15:44:13.620Z,1.20
2019-05-26T15:46:43.123Z,1.30
2019-05-26T15:49:12.406Z,1.47
2019-05-26T15:51:41.670Z,1.30
2019-05-26T15:54:10.946Z,1.45
2019-05-26T15:56:40.222Z,1.40
2019-05-26T15:59:09.487Z,1.50
2019-05-26T16:01:38.781Z,1.35
2019-05-26T16:04:08.040Z,1.30
2019-05-26T16:06:37.308Z,1.10
2019-05-26T16:09:08.174Z,1.35
2019-05-26T16:11:38.183Z,1.32
2019-05-26T16:14:07.505Z,1.32
2019-05-26T16:16:41.085Z,1.15
2019-05-26T16:19:08.069Z,1.17
2019-05-26T16:21:37.662Z,0.90
2019-05-26T16:24:07.086Z,1.25
2019-05-26T16:26:36.668Z,1.20
2019-05-26T16:29:06.115Z,1.20
2019-05-26T16:31:35.374Z,1.20
2019-05-26T16:34:04.632Z,1.27
2019-05-26T16:36:34.183Z,1.35
2019-05-26T16:39:04.995Z,1.32
2019-05-26T16:41:34.523Z,1.00
2019-05-26T16:44:04.068Z,1.60
2019-05-26T16:46:33.323Z,1.52
2019-05-26T16:49:02.658Z,1.30
2019-05-26T16:51:31.928Z,1.50
2019-05-26T16:54:01.447Z,1.65
2019-05-26T16:56:30.759Z,1.27
2019-05-26T16:59:00.032Z,1.50
2019-05-26T17:01:29.340Z,1.40
2019-05-26T17:03:58.607Z,1.35
2019-05-26T17:06:27.875Z,1.30
2019-05-26T17:08:57.143Z,1.60
2019-05-26T17:11:26.415Z,1.35
2019-05-26T17:13:55.690Z,1.30
2019-05-26T17:16:24.949Z,1.57
2019-05-26T17:18:53.941Z,1.40
2019-05-26T17:21:23.172Z,1.37
2019-05-26T17:23:52.443Z,1.47
2019-05-26T17:26:21.713Z,1.32
2019-05-26T17:28:51.074Z,1.67
2019-05-26T17:31:20.339Z,1.57
2019-05-26T17:33:49.613Z,1.35
2019-05-26T17:36:18.880Z,1.45
2019-05-26T17:38:48.154Z,1.10
2019-05-26T17:41:17.406Z,1.50
2019-05-26T17:43:46.691Z,2.17
2019-05-26T17:46:15.961Z,1.40
2019-05-26T17:48:45.223Z,1.50
2019-05-26T17:51:14.487Z,1.85
2019-05-26T17:53:43.758Z,1.50
2019-05-26T17:56:13.086Z,1.35
2019-05-26T17:58:42.482Z,2.50
2019-05-26T18:01:11.858Z,1.92
2019-05-26T18:03:41.310Z,1.42
2019-05-26T18:06:10.572Z,1.95
2019-05-26T18:08:39.917Z,1.98
2019-05-26T18:11:09.213Z,2.67
2019-05-26T18:13:38.476Z,1.75
2019-05-26T18:16:07.809Z,1.55
2019-05-26T18:18:37.094Z,1.60
2019-05-26T18:21:06.442Z,1.70
2019-05-26T18:23:35.999Z,1.70
2019-05-26T18:26:05.436Z,1.62
2019-05-26T18:28:34.698Z,1.70
2019-05-26T18:31:04.317Z,1.80
2019-05-26T18:33:34.949Z,1.70
2019-05-26T18:36:04.313Z,2.30
2019-05-26T18:38:33.577Z,1.70
2019-05-26T18:41:02.864Z,2.22
2019-05-26T18:43:32.278Z,3.67
2019-05-26T18:46:01.535Z,1.90
2019-05-26T18:48:30.878Z,2.22
2019-05-26T18:51:00.158Z,2.27
2019-05-26T18:53:29.996Z,1.72
2019-05-26T18:55:59.422Z,1.80
2019-05-26T18:58:28.987Z,1.55
2019-05-26T19:00:58.272Z,2.00
2019-05-26T19:03:27.824Z,1.80
2019-05-26T19:05:57.404Z,1.60
2019-05-26T19:08:26.679Z,1.85
2019-05-26T19:10:55.943Z,1.80
2019-05-26T19:13:25.210Z,1.80
2019-05-26T19:15:54.822Z,1.85
2019-05-26T19:18:24.078Z,1.60
2019-05-26T19:20:53.515Z,1.70
2019-05-26T19:23:22.782Z,1.67
2019-05-26T19:25:52.055Z,1.70
2019-05-26T19:28:21.335Z,1.82
2019-05-26T19:30:50.948Z,1.72
2019-05-26T19:33:20.543Z,1.67
2019-05-26T19:35:50.083Z,1.80
2019-05-26T19:38:19.663Z,1.80
2019-05-26T19:40:48.960Z,1.80
2019-05-26T19:43:18.280Z,1.90
2019-05-26T19:45:47.895Z,2.02
2019-05-26T19:48:17.227Z,2.12
2019-05-26T19:50:46.487Z,1.80
2019-05-26T19:53:15.938Z,2.00
2019-05-26T19:55:45.487Z,1.70
2019-05-26T19:58:14.750Z,2.00
2019-05-26T20:00:44.019Z,1.82
2019-05-26T20:03:13.286Z,2.30
2019-05-26T20:05:42.550Z,2.08
2019-05-26T20:08:11.822Z,2.15
2019-05-26T20:10:41.088Z,1.70
2019-05-26T20:13:10.434Z,1.82
2019-05-26T20:15:39.759Z,1.60
2019-05-26T20:18:09.030Z,1.80
2019-05-26T20:20:38.299Z,1.80
2019-05-26T20:23:07.561Z,1.92
2019-05-26T20:25:36.829Z,1.62
2019-05-26T20:28:06.168Z,1.57
2019-05-26T20:30:35.438Z,1.90
2019-05-26T20:33:04.775Z,1.80
2019-05-26T20:35:34.047Z,1.80
2019-05-26T20:38:03.306Z,1.90
2019-05-26T20:40:32.587Z,1.92
2019-05-26T20:43:01.852Z,1.70
2019-05-26T20:45:31.123Z,1.60
2019-05-26T20:48:00.388Z,1.57
2019-05-26T20:50:30.186Z,1.65
2019-05-26T20:52:59.857Z,1.70
2019-05-26T20:55:29.111Z,1.75
2019-05-26T20:57:58.370Z,1.80
2019-05-26T21:00:27.716Z,1.90
2019-05-26T21:02:56.991Z,1.98
2019-05-26T21:05:26.261Z,1.72
2019-05-26T21:07:55.513Z,2.10
2019-05-26T21:10:24.784Z,1.72
2019-05-26T21:12:54.050Z,1.80
2019-05-26T21:15:23.317Z,2.15
2019-05-26T21:17:52.602Z,1.72
2019-05-26T21:20:23.583Z,2.00
2019-05-26T21:22:58.373Z,1.90
2019-05-26T21:25:27.639Z,2.20
2019-05-26T21:27:56.956Z,2.02
2019-05-26T21:30:26.228Z,1.82
2019-05-26T21:32:55.496Z,1.80
2019-05-26T21:35:24.777Z,1.80
2019-05-26T21:37:54.308Z,1.60
2019-05-26T21:40:23.754Z,1.95
2019-05-26T21:42:53.022Z,2.05
2019-05-26T21:45:22.352Z,2.00
2019-05-26T21:47:51.723Z,1.85
2019-05-26T21:50:21.063Z,1.95
2019-05-26T21:52:50.326Z,2.37
2019-05-26T21:55:19.599Z,2.00
2019-05-26T21:57:48.859Z,2.20
2019-05-26T22:00:23.642Z,1.95
2019-05-26T22:02:54.527Z,1.95
2019-05-26T22:05:23.793Z,2.00
2019-05-26T22:07:53.532Z,2.02
2019-05-26T22:10:22.798Z,2.00
2019-05-26T22:12:52.066Z,2.30
2019-05-26T22:15:21.331Z,2.40
2019-05-26T22:17:50.609Z,2.05
2019-05-26T22:20:19.863Z,2.10
2019-05-26T22:22:49.127Z,1.98
2019-05-26T22:25:18.400Z,2.10
2019-05-26T22:27:47.671Z,2.55
2019-05-26T22:30:17.570Z,2.10
2019-05-26T22:32:46.839Z,2.05
2019-05-26T22:35:16.097Z,2.20
2019-05-26T22:37:45.663Z,2.02
2019-05-26T22:40:16.199Z,2.20
2019-05-26T22:42:45.465Z,1.98
2019-05-26T22:45:15.371Z,1.90
2019-05-26T22:47:44.634Z,1.95
2019-05-26T22:50:14.352Z,2.00
2019-05-26T22:52:43.615Z,2.15
2019-05-26T22:55:13.063Z,2.22
2019-05-26T22:57:42.345Z,1.98
2019-05-26T23:00:12.273Z,2.22
2019-05-26T23:02:41.786Z,1.98
2019-05-26T23:05:11.289Z,1.95
2019-05-26T23:07:40.569Z,1.85
2019-05-26T23:10:11.279Z,1.90
2019-05-26T23:12:40.540Z,1.87
2019-05-26T23:15:10.450Z,2.10
2019-05-26T23:17:39.719Z,2.10
2019-05-26T23:20:09.523Z,2.40
2019-05-26T23:22:38.787Z,2.08
2019-05-26T23:25:08.491Z,2.00
2019-05-26T23:27:37.765Z,2.30
2019-05-26T23:30:07.963Z,2.27
2019-05-26T23:32:37.228Z,2.17
2019-05-26T23:35:07.027Z,1.77
2019-05-26T23:37:36.549Z,2.08
2019-05-26T23:40:09.019Z,2.27
2019-05-26T23:42:38.260Z,2.08
2019-05-26T23:45:08.055Z,2.15
2019-05-26T23:47:37.333Z,1.90
2019-05-26T23:50:07.603Z,2.00
2019-05-26T23:52:37.215Z,1.90
2019-05-26T23:55:07.265Z,2.10
2019-05-26T23:57:36.565Z,2.05
